createdAt,value
2023-05-02T00:01:22.435Z,10.57
2023-05-02T00:03:48.905Z,11.38
2023-05-02T00:06:15.354Z,12.10
2023-05-02T00:08:41.726Z,10.73
2023-05-02T00:11:08.048Z,11.75
2023-05-02T00:13:34.423Z,12.55
2023-05-02T00:16:00.704Z,13.95
2023-05-02T00:18:26.973Z,11.55
2023-05-02T00:20:53.331Z,11.52
2023-05-02T00:23:19.571Z,12.48
2023-05-02T00:25:46.525Z,12.82
2023-05-02T00:28:13.850Z,10.90
2023-05-02T00:30:44.134Z,12.52
2023-05-02T00:33:12.418Z,12.15
2023-05-02T00:35:38.905Z,12.45
2023-05-02T00:38:06.104Z,11.65
2023-05-02T00:40:42.049Z,12.82
2023-05-02T00:43:08.346Z,11.23
2023-05-02T00:45:34.661Z,12.18
2023-05-02T00:48:01.147Z,11.52
2023-05-02T00:50:28.914Z,11.25
2023-05-02T00:52:55.535Z,12.50
2023-05-02T00:55:22.384Z,12.85
2023-05-02T00:57:49.927Z,11.40
2023-05-02T01:00:16.242Z,12.07
2023-05-02T01:02:48.513Z,12.80
2023-05-02T01:05:17.388Z,12.40
2023-05-02T01:07:43.711Z,10.93
2023-05-02T01:10:19.422Z,10.85
2023-05-02T01:12:47.175Z,12.23
2023-05-02T01:15:17.690Z,10.02
2023-05-02T01:17:44.364Z,12.57
2023-05-02T01:20:13.689Z,11.60
2023-05-02T01:22:43.540Z,12.98
2023-05-02T01:25:28.642Z,10.23
2023-05-02T01:28:15.295Z,10.95
2023-05-02T01:30:42.876Z,11.75
2023-05-02T01:33:11.013Z,10.50
2023-05-02T01:35:37.943Z,11.98
2023-05-02T01:38:04.828Z,12.00
2023-05-02T01:40:31.723Z,10.40
2023-05-02T01:42:58.670Z,11.18
2023-05-02T01:45:25.550Z,10.63
2023-05-02T01:47:52.280Z,10.70
2023-05-02T01:50:22.853Z,9.73
2023-05-02T01:52:51.102Z,9.98
2023-05-02T01:55:17.851Z,9.48
2023-05-02T01:57:45.943Z,12.32
2023-05-02T02:00:12.844Z,10.30
2023-05-02T02:02:41.005Z,11.35
2023-05-02T02:05:07.763Z,12.50
2023-05-02T02:07:34.174Z,11.73
2023-05-02T02:10:00.941Z,10.82
2023-05-02T02:12:35.394Z,10.70
2023-05-02T02:15:18.171Z,11.32
2023-05-02T02:18:04.704Z,12.60
2023-05-02T02:20:32.350Z,10.13
2023-05-02T02:23:00.638Z,11.10
2023-05-02T02:25:27.337Z,11.80
2023-05-02T02:27:53.721Z,10.00
2023-05-02T02:30:20.007Z,10.70
2023-05-02T02:32:46.372Z,12.55
2023-05-02T02:35:12.889Z,11.52
2023-05-02T02:37:45.866Z,10.07
2023-05-02T02:40:27.539Z,10.63
2023-05-02T02:43:06.082Z,12.93
2023-05-02T02:45:38.439Z,12.45
2023-05-02T02:48:08.296Z,9.48
2023-05-02T02:50:34.682Z,9.88
2023-05-02T02:53:13.964Z,9.35
2023-05-02T02:55:40.270Z,9.38
2023-05-02T02:58:15.637Z,9.80
2023-05-02T03:00:42.089Z,9.70
2023-05-02T03:03:08.544Z,9.57
2023-05-02T03:05:35.165Z,8.52
2023-05-02T03:08:01.476Z,11.13
2023-05-02T03:10:27.716Z,7.45
2023-05-02T03:12:55.686Z,10.50
2023-05-02T03:15:31.759Z,8.68
2023-05-02T03:17:58.332Z,7.80
2023-05-02T03:20:24.703Z,7.82
2023-05-02T03:22:51.104Z,9.25
2023-05-02T03:25:17.430Z,8.23
2023-05-02T03:27:43.771Z,7.40
2023-05-02T03:30:10.299Z,6.93
2023-05-02T03:32:36.679Z,6.90
2023-05-02T03:35:02.974Z,6.45
2023-05-02T03:37:29.295Z,7.63
2023-05-02T03:39:55.729Z,6.72
2023-05-02T03:42:22.061Z,7.03
2023-05-02T03:44:51.652Z,7.20
2023-05-02T03:47:17.882Z,7.10
2023-05-02T03:49:44.220Z,7.50
2023-05-02T03:52:10.509Z,6.93
2023-05-02T03:54:36.740Z,6.30
2023-05-02T03:57:04.713Z,5.65
2023-05-02T03:59:35.107Z,5.00
2023-05-02T04:02:01.500Z,5.97
2023-05-02T04:04:27.953Z,6.35
2023-05-02T04:06:54.411Z,7.80
2023-05-02T04:09:25.046Z,5.40
2023-05-02T04:11:52.125Z,5.82
2023-05-02T04:14:18.639Z,5.90
2023-05-02T04:16:51.857Z,6.90
2023-05-02T04:19:18.817Z,5.28
2023-05-02T04:21:45.453Z,5.53
2023-05-02T04:24:11.982Z,6.03
2023-05-02T04:26:38.235Z,6.25
2023-05-02T04:29:04.562Z,5.30
2023-05-02T04:31:33.903Z,5.45
2023-05-02T04:34:00.324Z,5.35
2023-05-02T04:36:28.278Z,5.40
2023-05-02T04:38:54.605Z,6.63
2023-05-02T04:41:21.612Z,4.88
2023-05-02T04:43:47.906Z,5.30
2023-05-02T04:46:14.321Z,6.10
2023-05-02T04:48:42.166Z,7.40
2023-05-02T04:51:09.566Z,4.97
2023-05-02T04:53:35.929Z,4.88
2023-05-02T04:56:02.276Z,5.43
2023-05-02T04:58:28.634Z,5.93
2023-05-02T05:00:54.978Z,5.22
2023-05-02T05:03:21.599Z,5.30
2023-05-02T05:05:48.008Z,6.07
2023-05-02T05:08:14.403Z,5.47
2023-05-02T05:10:40.800Z,6.35
2023-05-02T05:13:07.067Z,4.93
2023-05-02T05:15:33.462Z,5.65
2023-05-02T05:17:59.739Z,4.93
2023-05-02T05:20:26.857Z,5.00
2023-05-02T05:22:53.214Z,4.68
2023-05-02T05:25:23.594Z,5.00
2023-05-02T05:28:01.490Z,6.45
2023-05-02T05:30:31.640Z,5.07
2023-05-02T05:33:01.196Z,6.75
2023-05-02T05:35:28.873Z,4.93
2023-05-02T05:37:57.504Z,5.00
2023-05-02T05:40:25.608Z,6.10
2023-05-02T05:42:54.797Z,5.88
2023-05-02T05:45:26.290Z,6.57
2023-05-02T05:47:55.559Z,6.90
2023-05-02T05:50:24.057Z,6.82
2023-05-02T05:52:51.985Z,5.10
2023-05-02T05:55:23.979Z,5.40
2023-05-02T05:57:52.581Z,5.35
2023-05-02T06:00:19.007Z,4.28
2023-05-02T06:02:45.323Z,4.40
2023-05-02T06:05:11.738Z,5.50
2023-05-02T06:07:38.067Z,5.28
2023-05-02T06:10:04.789Z,3.88
2023-05-02T06:12:31.109Z,4.88
2023-05-02T06:14:57.621Z,4.97
2023-05-02T06:17:23.922Z,5.50
2023-05-02T06:19:50.395Z,4.72
2023-05-02T06:22:16.899Z,4.90
2023-05-02T06:24:43.356Z,6.43
2023-05-02T06:27:09.896Z,5.88
2023-05-02T06:29:54.919Z,5.15
2023-05-02T06:35:51.939Z,8.23
2023-05-02T06:38:18.589Z,4.20
2023-05-02T06:40:45.338Z,3.58
2023-05-02T06:43:12.192Z,5.53
2023-05-02T06:45:38.936Z,5.05
2023-05-02T06:48:05.703Z,4.32
2023-05-02T06:50:32.155Z,4.43
2023-05-02T06:52:58.526Z,5.82
2023-05-02T06:55:25.026Z,4.28
2023-05-02T06:57:51.793Z,3.80
2023-05-02T07:00:18.655Z,5.93
2023-05-02T07:02:46.015Z,4.93
2023-05-02T07:05:12.463Z,5.00
2023-05-02T07:07:38.734Z,5.00
2023-05-02T07:10:05.308Z,3.75
2023-05-02T07:12:31.558Z,4.85
2023-05-02T07:14:57.897Z,4.60
2023-05-02T07:17:25.602Z,6.80
2023-05-02T07:19:52.430Z,7.82
2023-05-02T07:22:18.997Z,7.65
2023-05-02T07:24:45.376Z,6.50
2023-05-02T07:27:12.593Z,4.65
2023-05-02T07:29:39.201Z,6.57
2023-05-02T07:32:06.457Z,4.68
2023-05-02T07:34:32.986Z,5.55
2023-05-02T07:36:59.614Z,4.43
2023-05-02T07:39:25.943Z,4.72
2023-05-02T07:41:52.634Z,4.50
2023-05-02T07:44:18.964Z,5.10
2023-05-02T07:46:46.402Z,4.45
2023-05-02T07:49:13.061Z,3.15
2023-05-02T07:51:42.569Z,4.30
2023-05-02T07:54:15.755Z,4.40
2023-05-02T07:56:42.639Z,4.70
2023-05-02T07:59:09.617Z,3.38
2023-05-02T08:01:36.010Z,4.13
2023-05-02T08:04:02.569Z,5.10
2023-05-02T08:06:29.052Z,4.05
2023-05-02T08:08:55.608Z,2.90
2023-05-02T08:11:27.843Z,3.80
2023-05-02T08:13:54.504Z,4.43
2023-05-02T08:16:20.891Z,4.47
2023-05-02T08:18:47.290Z,3.22
2023-05-02T08:21:13.722Z,2.95
2023-05-02T08:23:40.907Z,3.33
2023-05-02T08:26:07.361Z,4.50
2023-05-02T08:28:34.085Z,3.53
2023-05-02T08:31:00.349Z,4.13
2023-05-02T08:33:26.722Z,4.85
2023-05-02T08:35:53.187Z,4.00
2023-05-02T08:38:20.784Z,6.18
2023-05-02T08:40:47.142Z,4.53
2023-05-02T08:43:13.945Z,5.30
2023-05-02T08:45:41.956Z,3.75
2023-05-02T08:48:10.935Z,5.32
2023-05-02T08:50:41.829Z,7.63
2023-05-02T08:53:11.912Z,5.22
2023-05-02T08:55:42.196Z,4.32
2023-05-02T08:58:10.592Z,4.75
2023-05-02T09:00:41.181Z,4.20
2023-05-02T09:03:26.437Z,4.22
2023-05-02T09:05:55.132Z,6.63
2023-05-02T09:08:22.086Z,4.75
2023-05-02T09:10:49.255Z,6.43
2023-05-02T09:13:28.085Z,6.85
2023-05-02T09:16:02.345Z,5.30
2023-05-02T09:18:30.348Z,4.93
2023-05-02T09:20:58.466Z,6.32
2023-05-02T09:23:34.690Z,4.72
2023-05-02T09:26:01.364Z,5.18
2023-05-02T09:28:44.322Z,4.85
2023-05-02T09:31:12.935Z,4.32
2023-05-02T09:33:39.777Z,7.72
2023-05-02T09:36:10.226Z,3.47
2023-05-02T09:38:39.201Z,6.43
2023-05-02T09:41:05.562Z,4.95
2023-05-02T09:43:32.910Z,5.82
2023-05-02T09:45:59.188Z,4.55
2023-05-02T09:48:26.449Z,4.40
2023-05-02T09:50:52.877Z,4.10
2023-05-02T09:53:19.469Z,5.40
2023-05-02T09:55:45.911Z,5.72
2023-05-02T09:58:22.561Z,6.88
2023-05-02T10:00:49.821Z,7.18
2023-05-02T10:03:17.623Z,5.30
2023-05-02T10:05:44.808Z,5.10
2023-05-02T10:08:11.898Z,5.38
2023-05-02T10:10:39.874Z,5.13
2023-05-02T10:13:06.732Z,4.22
2023-05-02T10:15:33.852Z,6.10
2023-05-02T10:18:03.722Z,7.18
2023-05-02T10:20:35.451Z,6.80
2023-05-02T10:23:02.192Z,4.22
2023-05-02T10:25:29.038Z,6.93
2023-05-02T10:27:59.391Z,7.85
2023-05-02T10:30:26.352Z,5.70
2023-05-02T10:32:56.295Z,7.72
2023-05-02T10:35:23.044Z,6.03
2023-05-02T10:37:50.066Z,7.43
2023-05-02T10:40:16.547Z,4.90
2023-05-02T10:42:53.072Z,5.65
2023-05-02T10:45:32.672Z,4.30
2023-05-02T10:48:15.144Z,5.32
2023-05-02T10:50:47.340Z,5.47
2023-05-02T10:53:27.304Z,7.25
2023-05-02T10:56:16.557Z,4.90
2023-05-02T10:58:44.443Z,6.25
2023-05-02T11:01:29.314Z,6.20
2023-05-02T11:04:04.716Z,5.85
2023-05-02T11:06:34.185Z,5.57
2023-05-02T11:09:13.766Z,5.50
2023-05-02T11:11:43.996Z,6.15
2023-05-02T11:14:11.188Z,4.93
2023-05-02T11:16:56.574Z,5.10
2023-05-02T11:19:23.000Z,6.93
2023-05-02T11:21:49.409Z,4.80
2023-05-02T11:24:34.573Z,6.47
2023-05-02T11:27:19.758Z,8.40
2023-05-02T11:29:55.785Z,7.68
2023-05-02T11:32:25.502Z,7.03
2023-05-02T11:34:52.821Z,8.10
2023-05-02T11:37:20.965Z,4.60
2023-05-02T11:39:47.314Z,6.15
2023-05-02T11:42:30.017Z,9.73
2023-05-02T11:45:00.082Z,11.27
2023-05-02T11:47:27.533Z,8.18
2023-05-02T11:49:57.514Z,6.07
2023-05-02T11:52:24.501Z,6.65
2023-05-02T11:54:53.985Z,7.00
2023-05-02T11:57:20.261Z,6.40
2023-05-02T11:59:50.914Z,4.43
2023-05-02T12:02:17.303Z,7.05
2023-05-02T12:04:46.583Z,6.15
2023-05-02T12:07:13.041Z,9.15
2023-05-02T12:09:54.892Z,4.30
2023-05-02T12:12:21.720Z,4.47
2023-05-02T12:14:48.374Z,8.57
2023-05-02T12:17:15.000Z,5.93
2023-05-02T12:19:41.534Z,5.32
2023-05-02T12:22:07.917Z,7.40
2023-05-02T12:24:36.055Z,6.13
2023-05-02T12:27:08.877Z,5.20
2023-05-02T12:29:39.284Z,6.50
2023-05-02T12:32:05.833Z,5.97
2023-05-02T12:34:32.935Z,7.13
2023-05-02T12:36:59.677Z,4.63
2023-05-02T12:39:39.049Z,5.75
2023-05-02T12:42:16.346Z,3.95
2023-05-02T12:44:43.491Z,4.53
2023-05-02T12:47:13.692Z,5.50
2023-05-02T12:49:50.465Z,4.35
2023-05-02T12:52:17.618Z,4.22
2023-05-02T12:54:44.636Z,5.70
2023-05-02T12:57:21.960Z,4.13
2023-05-02T12:59:48.362Z,5.00
2023-05-02T13:02:14.715Z,4.63
2023-05-02T13:04:41.982Z,6.80
2023-05-02T13:07:08.336Z,5.53
2023-05-02T13:09:34.675Z,8.10
2023-05-02T13:12:03.603Z,5.90
2023-05-02T13:14:30.016Z,5.82
2023-05-02T13:16:59.423Z,7.88
2023-05-02T13:19:25.915Z,9.18
2023-05-02T13:21:52.197Z,6.00
2023-05-02T13:24:18.535Z,6.28
2023-05-02T13:26:44.954Z,7.88
2023-05-02T13:29:12.711Z,6.55
2023-05-02T13:31:42.207Z,6.43
2023-05-02T13:34:08.540Z,4.97
2023-05-02T13:36:36.352Z,5.53
2023-05-02T13:39:02.815Z,7.55
2023-05-02T13:41:29.132Z,8.00
2023-05-02T13:43:55.598Z,6.10
2023-05-02T13:46:21.917Z,5.13
2023-05-02T13:48:53.540Z,7.68
2023-05-02T13:51:22.503Z,5.45
2023-05-02T13:53:49.001Z,4.20
2023-05-02T13:56:16.001Z,6.03
2023-05-02T13:58:42.418Z,3.35
2023-05-02T14:01:08.768Z,5.53
2023-05-02T14:03:35.126Z,4.80
2023-05-02T14:06:01.716Z,4.22
2023-05-02T14:08:28.194Z,6.00
2023-05-02T14:10:54.529Z,6.78
2023-05-02T14:13:20.894Z,4.10
2023-05-02T14:15:47.300Z,6.53
2023-05-02T14:18:13.703Z,6.53
2023-05-02T14:20:40.118Z,6.53
2023-05-02T14:23:07.581Z,6.97
2023-05-02T14:25:34.219Z,8.10
2023-05-02T14:28:01.703Z,4.68
2023-05-02T14:30:28.255Z,5.97
2023-05-02T14:32:54.656Z,5.20
2023-05-02T14:35:21.001Z,4.72
2023-05-02T14:37:47.361Z,10.32
2023-05-02T14:40:16.713Z,6.35
2023-05-02T14:42:43.449Z,5.60
2023-05-02T14:45:09.986Z,4.93
2023-05-02T14:47:36.521Z,4.65
2023-05-02T14:50:03.822Z,5.32
2023-05-02T14:52:30.712Z,7.22
2023-05-02T14:55:00.706Z,5.53
2023-05-02T14:57:27.692Z,4.40
2023-05-02T14:59:54.376Z,4.88
2023-05-02T15:02:21.890Z,5.05
2023-05-02T15:04:48.558Z,5.85
2023-05-02T15:07:15.415Z,4.80
2023-05-02T15:09:42.107Z,5.72
2023-05-02T15:12:08.443Z,4.05
2023-05-02T15:14:34.902Z,5.03
2023-05-02T15:17:01.359Z,4.80
2023-05-02T15:19:28.199Z,6.68
2023-05-02T15:21:57.252Z,3.90
2023-05-02T15:24:26.785Z,5.28
2023-05-02T15:26:53.118Z,6.22
2023-05-02T15:29:19.413Z,5.97
2023-05-02T15:31:45.866Z,4.03
2023-05-02T15:34:12.593Z,5.00
2023-05-02T15:36:38.979Z,4.43
2023-05-02T15:39:06.093Z,7.03
2023-05-02T15:41:32.808Z,5.07
2023-05-02T15:43:59.503Z,6.13
2023-05-02T15:46:26.034Z,3.88
2023-05-02T15:48:52.367Z,5.28
2023-05-02T15:51:18.749Z,5.80
2023-05-02T15:53:49.675Z,6.10
2023-05-02T15:56:16.539Z,6.40
2023-05-02T15:58:42.911Z,5.35
2023-05-02T16:01:09.330Z,4.70
2023-05-02T16:03:36.584Z,4.57
2023-05-02T16:06:05.397Z,5.20
2023-05-02T16:08:31.754Z,3.60
2023-05-02T16:11:00.715Z,4.65
2023-05-02T16:13:27.680Z,5.00
2023-05-02T16:15:54.131Z,5.10
2023-05-02T16:18:20.446Z,5.30
2023-05-02T16:20:47.724Z,4.93
2023-05-02T16:23:14.053Z,4.72
2023-05-02T16:25:40.614Z,5.65
2023-05-02T16:28:07.127Z,6.20
2023-05-02T16:30:35.625Z,4.88
2023-05-02T16:33:02.010Z,4.82
2023-05-02T16:35:28.337Z,5.15
2023-05-02T16:37:54.629Z,7.22
2023-05-02T16:40:21.015Z,4.90
2023-05-02T16:42:47.273Z,4.85
2023-05-02T16:45:14.617Z,8.85
2023-05-02T16:47:41.184Z,6.30
2023-05-02T16:50:08.115Z,16.25
2023-05-02T16:52:36.639Z,14.88
2023-05-02T16:55:03.989Z,17.05
2023-05-02T16:57:31.301Z,9.70
2023-05-02T16:59:58.119Z,7.65
2023-05-02T17:02:24.857Z,8.68
2023-05-02T17:04:51.155Z,8.80
2023-05-02T17:07:17.672Z,10.95
2023-05-02T17:09:44.613Z,15.57
2023-05-02T17:12:14.955Z,11.20
2023-05-02T17:14:42.656Z,25.38
2023-05-02T17:17:09.538Z,28.35
2023-05-02T17:19:36.581Z,22.85
2023-05-02T17:22:04.934Z,18.80
2023-05-02T17:24:31.422Z,16.65
2023-05-02T17:26:57.859Z,18.65
2023-05-02T17:29:24.262Z,18.75
2023-05-02T17:31:50.836Z,20.10
2023-05-02T17:34:17.115Z,15.48
2023-05-02T17:36:44.621Z,16.20
2023-05-02T17:39:12.996Z,14.77
2023-05-02T17:41:39.369Z,21.40
2023-05-02T17:44:05.714Z,12.38
2023-05-02T17:46:32.921Z,12.57
2023-05-02T17:48:59.966Z,12.57
2023-05-02T17:51:26.628Z,13.55
2023-05-02T17:53:52.939Z,13.40
2023-05-02T17:56:19.341Z,11.35
2023-05-02T17:58:45.693Z,13.45
2023-05-02T18:01:13.742Z,10.77
2023-05-02T18:03:40.301Z,10.88
2023-05-02T18:06:07.062Z,9.10
2023-05-02T18:08:33.852Z,15.32
2023-05-02T18:11:00.724Z,9.68
2023-05-02T18:13:27.252Z,10.40
2023-05-02T18:16:02.519Z,17.00
2023-05-02T18:18:29.346Z,12.98
2023-05-02T18:20:55.874Z,16.70
2023-05-02T18:23:22.222Z,12.93
2023-05-02T18:25:48.540Z,14.35
2023-05-02T18:28:14.907Z,19.13
2023-05-02T18:30:41.499Z,20.55
2023-05-02T18:33:08.137Z,18.60
2023-05-02T18:35:35.693Z,18.05
2023-05-02T18:38:02.581Z,16.38
2023-05-02T18:40:29.060Z,13.00
2023-05-02T18:42:55.712Z,19.17
2023-05-02T18:45:22.028Z,18.02
2023-05-02T18:47:51.304Z,22.70
2023-05-02T18:50:18.210Z,14.02
2023-05-02T18:52:44.515Z,19.65
2023-05-02T18:55:11.587Z,10.48
2023-05-02T18:57:38.027Z,16.38
2023-05-02T19:00:07.636Z,17.58
2023-05-02T19:02:33.991Z,19.52
2023-05-02T19:05:00.885Z,18.45
2023-05-02T19:07:27.826Z,17.15
2023-05-02T19:09:54.341Z,11.52
2023-05-02T19:12:20.695Z,9.93
2023-05-02T19:14:47.867Z,12.25
2023-05-02T19:17:14.360Z,9.23
2023-05-02T19:19:41.718Z,11.07
2023-05-02T19:22:08.089Z,9.43
2023-05-02T19:24:36.824Z,9.88
2023-05-02T19:27:06.866Z,12.57
2023-05-02T19:29:34.069Z,12.63
2023-05-02T19:32:03.385Z,7.95
2023-05-02T19:34:29.948Z,8.48
2023-05-02T19:36:56.533Z,9.55
2023-05-02T19:39:23.081Z,11.07
2023-05-02T19:41:50.046Z,7.75
2023-05-02T19:44:16.490Z,12.35
2023-05-02T19:46:42.838Z,10.30
2023-05-02T19:49:09.524Z,10.95
2023-05-02T19:51:35.935Z,8.32
2023-05-02T19:54:02.288Z,8.15
2023-05-02T19:56:28.783Z,10.85
2023-05-02T19:58:56.799Z,7.75
2023-05-02T20:01:23.173Z,8.77
2023-05-02T20:03:49.670Z,8.95
2023-05-02T20:06:16.134Z,7.45
2023-05-02T20:08:42.405Z,8.20
2023-05-02T20:11:08.635Z,8.77
2023-05-02T20:13:34.983Z,6.93
2023-05-02T20:16:01.413Z,6.45
2023-05-02T20:18:27.725Z,6.55
2023-05-02T20:20:54.138Z,10.23
2023-05-02T20:23:20.512Z,8.73
2023-05-02T20:25:46.973Z,6.25
2023-05-02T20:28:13.531Z,14.30
2023-05-02T20:30:40.050Z,7.07
2023-05-02T20:33:14.895Z,7.47
2023-05-02T20:38:09.873Z,6.15
2023-05-02T20:40:38.782Z,7.63
2023-05-02T20:43:05.495Z,5.05
2023-05-02T20:45:31.850Z,8.57
2023-05-02T20:47:58.261Z,7.80
2023-05-02T20:50:24.749Z,6.30
2023-05-02T20:52:51.157Z,7.93
2023-05-02T20:55:18.612Z,7.32
2023-05-02T20:57:45.690Z,6.32
2023-05-02T21:00:13.679Z,5.18
2023-05-02T21:02:39.993Z,8.30
2023-05-02T21:05:06.395Z,5.00
2023-05-02T21:07:32.682Z,5.40
2023-05-02T21:09:59.031Z,4.93
2023-05-02T21:12:25.322Z,5.22
2023-05-02T21:14:51.616Z,5.43
2023-05-02T21:17:17.975Z,5.85
2023-05-02T21:19:44.302Z,5.53
2023-05-02T21:22:10.711Z,5.53
2023-05-02T21:24:36.972Z,7.53
2023-05-02T21:27:03.725Z,4.22
2023-05-02T21:29:30.000Z,6.35
2023-05-02T21:31:56.355Z,8.93
2023-05-02T21:34:22.638Z,6.70
2023-05-02T21:36:49.224Z,3.75
2023-05-02T21:39:16.279Z,8.73
2023-05-02T21:41:42.547Z,5.70
2023-05-02T21:44:10.786Z,5.75
2023-05-02T21:46:37.193Z,5.40
2023-05-02T21:49:03.949Z,4.70
2023-05-02T21:51:30.675Z,4.80
2023-05-02T21:53:56.924Z,3.42
2023-05-02T21:56:23.217Z,5.18
2023-05-02T21:58:51.332Z,5.85
2023-05-02T22:01:17.932Z,6.20
2023-05-02T22:03:44.282Z,5.10
2023-05-02T22:06:10.807Z,5.00
2023-05-02T22:08:37.647Z,3.40
2023-05-02T22:11:10.208Z,5.13
2023-05-02T22:13:36.875Z,4.65
2023-05-02T22:16:03.468Z,6.35
2023-05-02T22:18:29.831Z,6.47
2023-05-02T22:20:58.460Z,4.47
2023-05-02T22:23:24.826Z,4.25
2023-05-02T22:25:51.098Z,7.72
2023-05-02T22:28:17.455Z,6.85
2023-05-02T22:30:43.825Z,4.13
2023-05-02T22:33:10.489Z,4.38
2023-05-02T22:35:37.539Z,4.07
2023-05-02T22:38:04.633Z,3.40
2023-05-02T22:40:31.520Z,4.20
2023-05-02T22:42:58.088Z,3.97
2023-05-02T22:45:24.464Z,3.47
2023-05-02T22:47:52.191Z,3.28
2023-05-02T22:50:19.833Z,3.53
2023-05-02T22:52:46.483Z,5.43
2023-05-02T22:55:12.871Z,4.38
2023-05-02T22:57:42.102Z,4.03
2023-05-02T23:00:09.834Z,3.33
2023-05-02T23:02:36.466Z,2.47
2023-05-02T23:05:04.071Z,3.65
2023-05-02T23:07:30.487Z,3.40
2023-05-02T23:09:56.789Z,3.83
2023-05-02T23:12:23.145Z,2.35
2023-05-02T23:14:49.446Z,4.90
2023-05-02T23:17:15.825Z,3.72
2023-05-02T23:19:42.497Z,3.78
2023-05-02T23:22:08.847Z,4.88
2023-05-02T23:24:35.432Z,2.75
2023-05-02T23:27:01.810Z,3.53
2023-05-02T23:29:28.558Z,2.22
2023-05-02T23:31:55.455Z,2.85
2023-05-02T23:34:22.028Z,3.10
2023-05-02T23:36:48.819Z,4.13
2023-05-02T23:39:15.668Z,3.38
2023-05-02T23:41:42.253Z,2.42
2023-05-02T23:44:08.550Z,4.60
2023-05-02T23:46:34.847Z,2.55
2023-05-02T23:49:01.224Z,4.28
2023-05-02T23:51:28.368Z,3.50
2023-05-02T23:53:54.766Z,3.05
2023-05-02T23:56:21.204Z,4.50
2023-05-02T23:58:47.462Z,3.13
